Terminal Aerodrome Forecast
Issued by NWS

Home | Current Version | Previous Version | Text Only | Print | Product List | Glossary On
Versions: 1 2 3 4 5 6 7 8 9 10 11 12 13 14
000
FTUS43 KABR 291100
TAFMBG
TAF
KMBG 291133Z 2912/3012 VRB03KT P6SM SKC
     FM291500 05006KT P6SM FEW050
     FM300100 13006KT P6SM SKC=

USA.gov is the U.S. government's official web portal to all federal, state and local government web resources and services.